sensor_id;sensor_type;location;lat;lon;timestamp;P1;durP1;ratioP1;P2;durP2;ratioP2
12356;SDS011;6243;51.244;6.774;2023-04-25T00:00:39;9.73;;;4.13;;
12356;SDS011;6243;51.244;6.774;2023-04-25T00:03:06;8.63;;;4.63;;
12356;SDS011;6243;51.244;6.774;2023-04-25T00:05:31;15.20;;;5.17;;
12356;SDS011;6243;51.244;6.774;2023-04-25T00:07:57;9.03;;;4.67;;
12356;SDS011;6243;51.244;6.774;2023-04-25T00:10:23;7.10;;;4.03;;
12356;SDS011;6243;51.244;6.774;2023-04-25T00:12:48;11.10;;;4.57;;
12356;SDS011;6243;51.244;6.774;2023-04-25T00:15:14;10.77;;;4.60;;
12356;SDS011;6243;51.244;6.774;2023-04-25T00:17:40;9.03;;;4.17;;
12356;SDS011;6243;51.244;6.774;2023-04-25T00:20:07;8.60;;;4.20;;
12356;SDS011;6243;51.244;6.774;2023-04-25T00:22:33;10.37;;;4.33;;
12356;SDS011;6243;51.244;6.774;2023-04-25T00:24:59;12.20;;;4.43;;
12356;SDS011;6243;51.244;6.774;2023-04-25T00:27:25;9.90;;;4.27;;
12356;SDS011;6243;51.244;6.774;2023-04-25T00:29:50;7.57;;;4.33;;
12356;SDS011;6243;51.244;6.774;2023-04-25T00:32:16;8.43;;;3.93;;
12356;SDS011;6243;51.244;6.774;2023-04-25T00:34:42;9.57;;;4.07;;
12356;SDS011;6243;51.244;6.774;2023-04-25T00:37:09;10.40;;;4.13;;
12356;SDS011;6243;51.244;6.774;2023-04-25T00:39:34;8.77;;;4.13;;
12356;SDS011;6243;51.244;6.774;2023-04-25T00:42:00;9.60;;;4.37;;
12356;SDS011;6243;51.244;6.774;2023-04-25T00:44:25;10.07;;;4.73;;
12356;SDS011;6243;51.244;6.774;2023-04-25T00:46:52;12.73;;;4.20;;
12356;SDS011;6243;51.244;6.774;2023-04-25T00:49:19;10.00;;;4.10;;
12356;SDS011;6243;51.244;6.774;2023-04-25T00:51:44;7.80;;;4.10;;
12356;SDS011;6243;51.244;6.774;2023-04-25T00:54:12;10.50;;;4.20;;
12356;SDS011;6243;51.244;6.774;2023-04-25T00:56:38;9.13;;;4.10;;
12356;SDS011;6243;51.244;6.774;2023-04-25T00:59:04;8.67;;;3.73;;
12356;SDS011;6243;51.244;6.774;2023-04-25T01:01:30;11.90;;;4.40;;
12356;SDS011;6243;51.244;6.774;2023-04-25T01:03:56;9.70;;;3.93;;
12356;SDS011;6243;51.244;6.774;2023-04-25T01:06:23;10.37;;;4.43;;
12356;SDS011;6243;51.244;6.774;2023-04-25T01:08:49;8.17;;;4.43;;
12356;SDS011;6243;51.244;6.774;2023-04-25T01:11:15;10.30;;;4.10;;
12356;SDS011;6243;51.244;6.774;2023-04-25T01:13:41;11.10;;;4.67;;
12356;SDS011;6243;51.244;6.774;2023-04-25T01:16:07;8.50;;;4.43;;
12356;SDS011;6243;51.244;6.774;2023-04-25T01:18:32;11.57;;;4.43;;
12356;SDS011;6243;51.244;6.774;2023-04-25T01:21:02;10.70;;;4.03;;
12356;SDS011;6243;51.244;6.774;2023-04-25T01:23:32;9.70;;;4.43;;
12356;SDS011;6243;51.244;6.774;2023-04-25T01:25:58;9.27;;;3.93;;
12356;SDS011;6243;51.244;6.774;2023-04-25T01:28:23;7.27;;;4.07;;
12356;SDS011;6243;51.244;6.774;2023-04-25T01:30:49;8.63;;;3.97;;
12356;SDS011;6243;51.244;6.774;2023-04-25T01:33:16;9.10;;;4.17;;
12356;SDS011;6243;51.244;6.774;2023-04-25T01:35:44;8.67;;;4.00;;
12356;SDS011;6243;51.244;6.774;2023-04-25T01:38:11;12.33;;;4.67;;
12356;SDS011;6243;51.244;6.774;2023-04-25T01:40:37;8.50;;;4.40;;
12356;SDS011;6243;51.244;6.774;2023-04-25T01:43:05;10.40;;;4.57;;
12356;SDS011;6243;51.244;6.774;2023-04-25T01:45:30;7.47;;;3.97;;
12356;SDS011;6243;51.244;6.774;2023-04-25T01:47:56;9.33;;;3.73;;
12356;SDS011;6243;51.244;6.774;2023-04-25T01:50:22;7.90;;;4.00;;
12356;SDS011;6243;51.244;6.774;2023-04-25T01:52:48;7.10;;;4.17;;
12356;SDS011;6243;51.244;6.774;2023-04-25T01:55:15;7.73;;;3.80;;
12356;SDS011;6243;51.244;6.774;2023-04-25T01:57:41;8.30;;;4.17;;
12356;SDS011;6243;51.244;6.774;2023-04-25T02:00:06;5.20;;;3.83;;
12356;SDS011;6243;51.244;6.774;2023-04-25T02:02:32;5.77;;;3.70;;
12356;SDS011;6243;51.244;6.774;2023-04-25T02:04:58;7.57;;;4.07;;
12356;SDS011;6243;51.244;6.774;2023-04-25T02:07:23;8.47;;;3.80;;
12356;SDS011;6243;51.244;6.774;2023-04-25T02:09:49;6.90;;;3.87;;
12356;SDS011;6243;51.244;6.774;2023-04-25T02:12:16;6.57;;;3.47;;
12356;SDS011;6243;51.244;6.774;2023-04-25T02:14:41;5.97;;;3.00;;
12356;SDS011;6243;51.244;6.774;2023-04-25T02:17:07;6.37;;;3.20;;
12356;SDS011;6243;51.244;6.774;2023-04-25T02:19:32;6.10;;;3.03;;
12356;SDS011;6243;51.244;6.774;2023-04-25T02:21:58;5.30;;;3.00;;
12356;SDS011;6243;51.244;6.774;2023-04-25T02:24:23;9.97;;;3.13;;
12356;SDS011;6243;51.244;6.774;2023-04-25T02:26:49;3.57;;;2.57;;
12356;SDS011;6243;51.244;6.774;2023-04-25T02:29:16;6.37;;;3.03;;
12356;SDS011;6243;51.244;6.774;2023-04-25T02:31:41;5.30;;;3.30;;
12356;SDS011;6243;51.244;6.774;2023-04-25T02:34:07;4.10;;;2.73;;
12356;SDS011;6243;51.244;6.774;2023-04-25T02:36:33;5.57;;;3.10;;
12356;SDS011;6243;51.244;6.774;2023-04-25T02:38:58;5.87;;;3.40;;
12356;SDS011;6243;51.244;6.774;2023-04-25T02:41:24;6.03;;;3.37;;
12356;SDS011;6243;51.244;6.774;2023-04-25T02:43:49;5.87;;;3.17;;
12356;SDS011;6243;51.244;6.774;2023-04-25T02:46:16;7.23;;;3.47;;
12356;SDS011;6243;51.244;6.774;2023-04-25T02:48:42;7.20;;;3.10;;
12356;SDS011;6243;51.244;6.774;2023-04-25T02:51:07;8.23;;;4.10;;
12356;SDS011;6243;51.244;6.774;2023-04-25T02:53:33;4.83;;;3.03;;
12356;SDS011;6243;51.244;6.774;2023-04-25T02:55:58;4.53;;;3.63;;
12356;SDS011;6243;51.244;6.774;2023-04-25T02:58:24;8.70;;;3.60;;
12356;SDS011;6243;51.244;6.774;2023-04-25T03:00:49;6.27;;;3.53;;
12356;SDS011;6243;51.244;6.774;2023-04-25T03:03:16;7.10;;;3.47;;
12356;SDS011;6243;51.244;6.774;2023-04-25T03:05:42;7.43;;;3.73;;
12356;SDS011;6243;51.244;6.774;2023-04-25T03:08:07;6.27;;;3.70;;
12356;SDS011;6243;51.244;6.774;2023-04-25T03:10:33;8.13;;;3.77;;
12356;SDS011;6243;51.244;6.774;2023-04-25T03:12:59;7.90;;;4.07;;
12356;SDS011;6243;51.244;6.774;2023-04-25T03:15:24;6.57;;;3.73;;
12356;SDS011;6243;51.244;6.774;2023-04-25T03:17:50;9.20;;;3.77;;
12356;SDS011;6243;51.244;6.774;2023-04-25T03:20:16;7.13;;;3.87;;
12356;SDS011;6243;51.244;6.774;2023-04-25T03:22:42;7.40;;;3.87;;
12356;SDS011;6243;51.244;6.774;2023-04-25T03:25:08;8.77;;;4.50;;
12356;SDS011;6243;51.244;6.774;2023-04-25T03:27:33;5.30;;;3.60;;
12356;SDS011;6243;51.244;6.774;2023-04-25T03:29:59;6.70;;;3.57;;
12356;SDS011;6243;51.244;6.774;2023-04-25T03:32:24;7.03;;;3.87;;
12356;SDS011;6243;51.244;6.774;2023-04-25T03:34:50;8.17;;;4.43;;
12356;SDS011;6243;51.244;6.774;2023-04-25T03:37:17;7.17;;;4.27;;
12356;SDS011;6243;51.244;6.774;2023-04-25T03:39:42;7.67;;;4.40;;
12356;SDS011;6243;51.244;6.774;2023-04-25T03:42:08;8.00;;;4.17;;
12356;SDS011;6243;51.244;6.774;2023-04-25T03:44:33;9.00;;;4.10;;
12356;SDS011;6243;51.244;6.774;2023-04-25T03:46:59;9.77;;;4.23;;
12356;SDS011;6243;51.244;6.774;2023-04-25T03:49:24;8.17;;;4.20;;
12356;SDS011;6243;51.244;6.774;2023-04-25T03:51:50;9.83;;;4.10;;
12356;SDS011;6243;51.244;6.774;2023-04-25T03:54:17;8.30;;;3.73;;
12356;SDS011;6243;51.244;6.774;2023-04-25T03:56:42;6.37;;;4.10;;
12356;SDS011;6243;51.244;6.774;2023-04-25T03:59:08;10.60;;;4.37;;
12356;SDS011;6243;51.244;6.774;2023-04-25T04:01:33;7.47;;;3.67;;
12356;SDS011;6243;51.244;6.774;2023-04-25T04:03:59;8.17;;;4.10;;
12356;SDS011;6243;51.244;6.774;2023-04-25T04:06:24;8.73;;;4.20;;
12356;SDS011;6243;51.244;6.774;2023-04-25T04:08:50;7.33;;;4.40;;
12356;SDS011;6243;51.244;6.774;2023-04-25T04:11:17;8.93;;;4.27;;
12356;SDS011;6243;51.244;6.774;2023-04-25T04:13:42;8.50;;;3.80;;
12356;SDS011;6243;51.244;6.774;2023-04-25T04:16:08;10.30;;;4.27;;
12356;SDS011;6243;51.244;6.774;2023-04-25T04:18:33;9.90;;;3.93;;
12356;SDS011;6243;51.244;6.774;2023-04-25T04:20:59;10.83;;;4.70;;
12356;SDS011;6243;51.244;6.774;2023-04-25T04:23:24;8.37;;;3.90;;
12356;SDS011;6243;51.244;6.774;2023-04-25T04:25:50;10.33;;;4.07;;
12356;SDS011;6243;51.244;6.774;2023-04-25T04:28:17;9.47;;;4.23;;
12356;SDS011;6243;51.244;6.774;2023-04-25T04:30:42;11.40;;;3.97;;
12356;SDS011;6243;51.244;6.774;2023-04-25T04:33:08;10.07;;;4.13;;
12356;SDS011;6243;51.244;6.774;2023-04-25T04:35:33;13.10;;;4.57;;
12356;SDS011;6243;51.244;6.774;2023-04-25T04:37:59;9.40;;;4.00;;
12356;SDS011;6243;51.244;6.774;2023-04-25T04:40:24;8.60;;;4.63;;
12356;SDS011;6243;51.244;6.774;2023-04-25T04:42:50;11.40;;;4.60;;
12356;SDS011;6243;51.244;6.774;2023-04-25T04:45:17;7.03;;;4.07;;
12356;SDS011;6243;51.244;6.774;2023-04-25T04:47:43;9.80;;;3.90;;
12356;SDS011;6243;51.244;6.774;2023-04-25T04:50:09;9.30;;;4.50;;
12356;SDS011;6243;51.244;6.774;2023-04-25T04:52:35;12.23;;;4.47;;
12356;SDS011;6243;51.244;6.774;2023-04-25T04:55:03;8.13;;;4.10;;
12356;SDS011;6243;51.244;6.774;2023-04-25T04:57:30;10.77;;;4.30;;
12356;SDS011;6243;51.244;6.774;2023-04-25T04:59:56;11.90;;;4.67;;
12356;SDS011;6243;51.244;6.774;2023-04-25T05:02:23;11.13;;;4.47;;
12356;SDS011;6243;51.244;6.774;2023-04-25T05:04:48;10.03;;;4.53;;
12356;SDS011;6243;51.244;6.774;2023-04-25T05:07:14;14.53;;;5.13;;
12356;SDS011;6243;51.244;6.774;2023-04-25T05:09:39;11.90;;;5.00;;
12356;SDS011;6243;51.244;6.774;2023-04-25T05:12:05;9.53;;;4.13;;
12356;SDS011;6243;51.244;6.774;2023-04-25T05:14:31;18.43;;;5.40;;
12356;SDS011;6243;51.244;6.774;2023-04-25T05:16:56;12.47;;;4.57;;
12356;SDS011;6243;51.244;6.774;2023-04-25T05:19:23;11.37;;;4.10;;
12356;SDS011;6243;51.244;6.774;2023-04-25T05:21:49;11.37;;;4.73;;
12356;SDS011;6243;51.244;6.774;2023-04-25T05:24:14;10.43;;;4.70;;
12356;SDS011;6243;51.244;6.774;2023-04-25T05:26:40;10.20;;;4.20;;
12356;SDS011;6243;51.244;6.774;2023-04-25T05:29:05;11.00;;;4.23;;
12356;SDS011;6243;51.244;6.774;2023-04-25T05:31:31;11.63;;;4.90;;
12356;SDS011;6243;51.244;6.774;2023-04-25T05:33:56;10.10;;;4.20;;
12356;SDS011;6243;51.244;6.774;2023-04-25T05:36:23;10.70;;;4.70;;
12356;SDS011;6243;51.244;6.774;2023-04-25T05:38:49;11.23;;;4.53;;
12356;SDS011;6243;51.244;6.774;2023-04-25T05:41:15;10.93;;;4.90;;
12356;SDS011;6243;51.244;6.774;2023-04-25T05:43:40;13.40;;;4.97;;
12356;SDS011;6243;51.244;6.774;2023-04-25T05:46:06;9.73;;;4.03;;
12356;SDS011;6243;51.244;6.774;2023-04-25T05:48:31;10.57;;;4.80;;
12356;SDS011;6243;51.244;6.774;2023-04-25T05:50:57;11.10;;;4.37;;
12356;SDS011;6243;51.244;6.774;2023-04-25T05:53:24;7.83;;;4.17;;
12356;SDS011;6243;51.244;6.774;2023-04-25T05:55:49;9.50;;;4.23;;
12356;SDS011;6243;51.244;6.774;2023-04-25T05:58:15;9.57;;;3.93;;
12356;SDS011;6243;51.244;6.774;2023-04-25T06:00:40;9.90;;;4.27;;
12356;SDS011;6243;51.244;6.774;2023-04-25T06:03:05;9.83;;;4.20;;
12356;SDS011;6243;51.244;6.774;2023-04-25T06:05:31;13.33;;;4.90;;
12356;SDS011;6243;51.244;6.774;2023-04-25T06:07:56;11.93;;;3.97;;
12356;SDS011;6243;51.244;6.774;2023-04-25T06:10:23;10.97;;;4.53;;
12356;SDS011;6243;51.244;6.774;2023-04-25T06:12:49;12.23;;;4.27;;
12356;SDS011;6243;51.244;6.774;2023-04-25T06:15:14;7.57;;;4.03;;
12356;SDS011;6243;51.244;6.774;2023-04-25T06:17:40;9.03;;;4.00;;
12356;SDS011;6243;51.244;6.774;2023-04-25T06:20:06;6.47;;;3.93;;
12356;SDS011;6243;51.244;6.774;2023-04-25T06:22:32;6.83;;;3.43;;
12356;SDS011;6243;51.244;6.774;2023-04-25T06:24:58;11.47;;;4.33;;
12356;SDS011;6243;51.244;6.774;2023-04-25T06:27:25;10.80;;;3.97;;
12356;SDS011;6243;51.244;6.774;2023-04-25T06:29:51;9.43;;;3.57;;
12356;SDS011;6243;51.244;6.774;2023-04-25T06:32:16;7.07;;;3.37;;
12356;SDS011;6243;51.244;6.774;2023-04-25T06:34:42;12.83;;;3.87;;
12356;SDS011;6243;51.244;6.774;2023-04-25T06:37:07;7.47;;;3.20;;
12356;SDS011;6243;51.244;6.774;2023-04-25T06:39:33;8.30;;;3.47;;
12356;SDS011;6243;51.244;6.774;2023-04-25T06:41:58;5.37;;;3.10;;
12356;SDS011;6243;51.244;6.774;2023-04-25T06:44:25;9.07;;;3.50;;
12356;SDS011;6243;51.244;6.774;2023-04-25T06:46:50;6.83;;;3.30;;
12356;SDS011;6243;51.244;6.774;2023-04-25T06:49:16;6.17;;;2.97;;
12356;SDS011;6243;51.244;6.774;2023-04-25T06:51:41;9.00;;;3.27;;
12356;SDS011;6243;51.244;6.774;2023-04-25T06:54:07;7.90;;;3.40;;
12356;SDS011;6243;51.244;6.774;2023-04-25T06:56:32;11.17;;;3.17;;
12356;SDS011;6243;51.244;6.774;2023-04-25T06:58:58;11.13;;;3.80;;
12356;SDS011;6243;51.244;6.774;2023-04-25T07:01:25;6.67;;;3.13;;
12356;SDS011;6243;51.244;6.774;2023-04-25T07:03:50;10.63;;;3.67;;
12356;SDS011;6243;51.244;6.774;2023-04-25T07:06:16;6.97;;;3.50;;
12356;SDS011;6243;51.244;6.774;2023-04-25T07:08:41;5.93;;;2.50;;
12356;SDS011;6243;51.244;6.774;2023-04-25T07:11:07;7.97;;;3.13;;
12356;SDS011;6243;51.244;6.774;2023-04-25T07:13:32;8.00;;;3.00;;
12356;SDS011;6243;51.244;6.774;2023-04-25T07:15:58;6.10;;;3.50;;
12356;SDS011;6243;51.244;6.774;2023-04-25T07:18:25;7.33;;;3.50;;
12356;SDS011;6243;51.244;6.774;2023-04-25T07:20:51;4.83;;;2.67;;
12356;SDS011;6243;51.244;6.774;2023-04-25T07:23:16;5.47;;;2.57;;
12356;SDS011;6243;51.244;6.774;2023-04-25T07:25:42;8.27;;;2.73;;
12356;SDS011;6243;51.244;6.774;2023-04-25T07:28:07;9.10;;;2.97;;
12356;SDS011;6243;51.244;6.774;2023-04-25T07:30:33;9.33;;;2.80;;
12356;SDS011;6243;51.244;6.774;2023-04-25T07:32:58;8.30;;;3.17;;
12356;SDS011;6243;51.244;6.774;2023-04-25T07:35:25;5.50;;;2.87;;
12356;SDS011;6243;51.244;6.774;2023-04-25T07:37:51;10.50;;;3.47;;
12356;SDS011;6243;51.244;6.774;2023-04-25T07:40:16;8.20;;;2.70;;
12356;SDS011;6243;51.244;6.774;2023-04-25T07:42:42;7.20;;;2.67;;
12356;SDS011;6243;51.244;6.774;2023-04-25T07:45:08;5.63;;;2.50;;
12356;SDS011;6243;51.244;6.774;2023-04-25T07:47:34;8.47;;;3.57;;
12356;SDS011;6243;51.244;6.774;2023-04-25T07:49:59;9.33;;;2.80;;
12356;SDS011;6243;51.244;6.774;2023-04-25T07:52:26;6.10;;;2.93;;
12356;SDS011;6243;51.244;6.774;2023-04-25T07:54:51;8.10;;;3.33;;
12356;SDS011;6243;51.244;6.774;2023-04-25T07:57:17;6.50;;;2.80;;
12356;SDS011;6243;51.244;6.774;2023-04-25T07:59:42;7.33;;;3.07;;
12356;SDS011;6243;51.244;6.774;2023-04-25T08:02:08;9.13;;;2.93;;
12356;SDS011;6243;51.244;6.774;2023-04-25T08:04:33;7.63;;;3.10;;
12356;SDS011;6243;51.244;6.774;2023-04-25T08:06:59;7.13;;;2.53;;
12356;SDS011;6243;51.244;6.774;2023-04-25T08:09:26;5.57;;;2.57;;
12356;SDS011;6243;51.244;6.774;2023-04-25T08:11:52;5.90;;;2.23;;
12356;SDS011;6243;51.244;6.774;2023-04-25T08:14:17;8.10;;;2.80;;
12356;SDS011;6243;51.244;6.774;2023-04-25T08:16:43;6.20;;;2.40;;
12356;SDS011;6243;51.244;6.774;2023-04-25T08:19:08;8.40;;;2.80;;
12356;SDS011;6243;51.244;6.774;2023-04-25T08:21:34;5.43;;;2.20;;
12356;SDS011;6243;51.244;6.774;2023-04-25T08:23:59;8.23;;;2.90;;
12356;SDS011;6243;51.244;6.774;2023-04-25T08:26:26;8.30;;;2.40;;
12356;SDS011;6243;51.244;6.774;2023-04-25T08:28:53;8.73;;;2.63;;
12356;SDS011;6243;51.244;6.774;2023-04-25T08:31:18;7.23;;;2.67;;
12356;SDS011;6243;51.244;6.774;2023-04-25T08:33:44;5.40;;;2.60;;
12356;SDS011;6243;51.244;6.774;2023-04-25T08:36:09;7.50;;;2.40;;
12356;SDS011;6243;51.244;6.774;2023-04-25T08:38:35;5.97;;;2.77;;
12356;SDS011;6243;51.244;6.774;2023-04-25T08:41:00;5.27;;;2.23;;
12356;SDS011;6243;51.244;6.774;2023-04-25T08:43:27;5.50;;;2.47;;
12356;SDS011;6243;51.244;6.774;2023-04-25T08:45:54;6.47;;;2.10;;
12356;SDS011;6243;51.244;6.774;2023-04-25T08:48:24;6.03;;;2.10;;
12356;SDS011;6243;51.244;6.774;2023-04-25T08:50:52;5.57;;;2.73;;
12356;SDS011;6243;51.244;6.774;2023-04-25T08:53:20;5.63;;;2.50;;
12356;SDS011;6243;51.244;6.774;2023-04-25T08:55:50;6.87;;;2.67;;
12356;SDS011;6243;51.244;6.774;2023-04-25T08:58:16;6.20;;;2.23;;
12356;SDS011;6243;51.244;6.774;2023-04-25T09:00:44;3.97;;;1.97;;
12356;SDS011;6243;51.244;6.774;2023-04-25T09:03:11;4.73;;;2.00;;
12356;SDS011;6243;51.244;6.774;2023-04-25T09:05:37;6.87;;;2.03;;
12356;SDS011;6243;51.244;6.774;2023-04-25T09:08:02;5.27;;;2.07;;
12356;SDS011;6243;51.244;6.774;2023-04-25T09:10:28;5.50;;;1.90;;
12356;SDS011;6243;51.244;6.774;2023-04-25T09:13:03;6.53;;;2.10;;
12356;SDS011;6243;51.244;6.774;2023-04-25T09:15:29;4.60;;;1.80;;
12356;SDS011;6243;51.244;6.774;2023-04-25T09:17:56;3.50;;;1.77;;
12356;SDS011;6243;51.244;6.774;2023-04-25T09:20:22;4.90;;;1.67;;
12356;SDS011;6243;51.244;6.774;2023-04-25T09:22:47;4.17;;;2.13;;
12356;SDS011;6243;51.244;6.774;2023-04-25T09:25:13;8.53;;;2.73;;
12356;SDS011;6243;51.244;6.774;2023-04-25T09:27:49;3.30;;;1.80;;
12356;SDS011;6243;51.244;6.774;2023-04-25T09:30:15;4.70;;;2.13;;
12356;SDS011;6243;51.244;6.774;2023-04-25T09:32:41;3.60;;;1.70;;
12356;SDS011;6243;51.244;6.774;2023-04-25T09:35:09;4.33;;;1.37;;
12356;SDS011;6243;51.244;6.774;2023-04-25T09:37:35;2.97;;;1.70;;
12356;SDS011;6243;51.244;6.774;2023-04-25T09:40:03;3.47;;;1.70;;
12356;SDS011;6243;51.244;6.774;2023-04-25T09:42:31;3.57;;;1.60;;
12356;SDS011;6243;51.244;6.774;2023-04-25T09:44:57;4.17;;;1.80;;
12356;SDS011;6243;51.244;6.774;2023-04-25T09:47:25;5.23;;;2.00;;
12356;SDS011;6243;51.244;6.774;2023-04-25T09:49:51;5.93;;;2.03;;
12356;SDS011;6243;51.244;6.774;2023-04-25T09:52:19;4.53;;;2.07;;
12356;SDS011;6243;51.244;6.774;2023-04-25T09:54:46;6.47;;;2.13;;
12356;SDS011;6243;51.244;6.774;2023-04-25T09:57:13;3.47;;;1.47;;
12356;SDS011;6243;51.244;6.774;2023-04-25T09:59:42;2.83;;;1.40;;
12356;SDS011;6243;51.244;6.774;2023-04-25T10:02:09;4.27;;;1.60;;
12356;SDS011;6243;51.244;6.774;2023-04-25T10:04:35;3.10;;;1.77;;
12356;SDS011;6243;51.244;6.774;2023-04-25T10:07:03;3.47;;;1.60;;
12356;SDS011;6243;51.244;6.774;2023-04-25T10:09:33;4.60;;;1.83;;
12356;SDS011;6243;51.244;6.774;2023-04-25T10:12:01;3.43;;;1.50;;
12356;SDS011;6243;51.244;6.774;2023-04-25T10:14:28;4.47;;;1.60;;
12356;SDS011;6243;51.244;6.774;2023-04-25T10:16:54;3.30;;;1.60;;
12356;SDS011;6243;51.244;6.774;2023-04-25T10:19:21;3.63;;;1.60;;
12356;SDS011;6243;51.244;6.774;2023-04-25T10:21:48;3.47;;;1.80;;
12356;SDS011;6243;51.244;6.774;2023-04-25T10:24:17;5.50;;;2.00;;
12356;SDS011;6243;51.244;6.774;2023-04-25T10:26:45;3.53;;;1.90;;
12356;SDS011;6243;51.244;6.774;2023-04-25T10:29:11;6.33;;;1.47;;
12356;SDS011;6243;51.244;6.774;2023-04-25T10:31:44;5.67;;;1.70;;
12356;SDS011;6243;51.244;6.774;2023-04-25T10:34:11;2.10;;;1.33;;
12356;SDS011;6243;51.244;6.774;2023-04-25T10:36:36;3.50;;;1.87;;
12356;SDS011;6243;51.244;6.774;2023-04-25T10:39:03;3.30;;;1.70;;
12356;SDS011;6243;51.244;6.774;2023-04-25T10:41:29;3.63;;;1.80;;
12356;SDS011;6243;51.244;6.774;2023-04-25T10:44:00;6.20;;;1.60;;
12356;SDS011;6243;51.244;6.774;2023-04-25T10:46:25;3.20;;;1.50;;
12356;SDS011;6243;51.244;6.774;2023-04-25T10:48:53;3.97;;;1.80;;
12356;SDS011;6243;51.244;6.774;2023-04-25T10:51:20;4.40;;;1.60;;
12356;SDS011;6243;51.244;6.774;2023-04-25T10:53:56;3.97;;;1.50;;
12356;SDS011;6243;51.244;6.774;2023-04-25T10:56:23;4.97;;;2.10;;
12356;SDS011;6243;51.244;6.774;2023-04-25T10:58:50;3.43;;;1.40;;
12356;SDS011;6243;51.244;6.774;2023-04-25T11:01:21;5.20;;;1.73;;
12356;SDS011;6243;51.244;6.774;2023-04-25T11:03:49;3.33;;;1.60;;
12356;SDS011;6243;51.244;6.774;2023-04-25T11:06:28;3.47;;;1.70;;
12356;SDS011;6243;51.244;6.774;2023-04-25T11:09:00;2.87;;;1.57;;
12356;SDS011;6243;51.244;6.774;2023-04-25T11:11:26;3.60;;;1.57;;
12356;SDS011;6243;51.244;6.774;2023-04-25T11:13:54;3.23;;;1.80;;
12356;SDS011;6243;51.244;6.774;2023-04-25T11:16:21;3.77;;;1.77;;
12356;SDS011;6243;51.244;6.774;2023-04-25T11:18:49;3.67;;;1.80;;
12356;SDS011;6243;51.244;6.774;2023-04-25T11:21:14;4.03;;;2.07;;
12356;SDS011;6243;51.244;6.774;2023-04-25T11:23:41;2.37;;;1.53;;
12356;SDS011;6243;51.244;6.774;2023-04-25T11:26:09;4.30;;;1.77;;
12356;SDS011;6243;51.244;6.774;2023-04-25T11:28:35;4.03;;;1.70;;
12356;SDS011;6243;51.244;6.774;2023-04-25T11:31:02;2.67;;;1.67;;
12356;SDS011;6243;51.244;6.774;2023-04-25T11:33:29;4.97;;;1.87;;
12356;SDS011;6243;51.244;6.774;2023-04-25T11:35:54;5.67;;;2.13;;
12356;SDS011;6243;51.244;6.774;2023-04-25T11:38:20;4.87;;;1.90;;
12356;SDS011;6243;51.244;6.774;2023-04-25T11:40:49;3.53;;;1.67;;
12356;SDS011;6243;51.244;6.774;2023-04-25T11:43:15;4.83;;;1.70;;
12356;SDS011;6243;51.244;6.774;2023-04-25T11:45:40;4.53;;;1.83;;
12356;SDS011;6243;51.244;6.774;2023-04-25T11:48:06;2.57;;;1.40;;
12356;SDS011;6243;51.244;6.774;2023-04-25T11:50:33;4.53;;;1.63;;
12356;SDS011;6243;51.244;6.774;2023-04-25T11:52:58;3.47;;;1.63;;
12356;SDS011;6243;51.244;6.774;2023-04-25T11:55:24;3.17;;;1.53;;
12356;SDS011;6243;51.244;6.774;2023-04-25T11:57:50;3.97;;;1.80;;
12356;SDS011;6243;51.244;6.774;2023-04-25T12:00:16;3.30;;;1.87;;
12356;SDS011;6243;51.244;6.774;2023-04-25T12:02:43;2.40;;;1.70;;
12356;SDS011;6243;51.244;6.774;2023-04-25T12:05:09;3.23;;;1.90;;
12356;SDS011;6243;51.244;6.774;2023-04-25T12:07:37;6.67;;;2.37;;
12356;SDS011;6243;51.244;6.774;2023-04-25T12:10:05;4.47;;;1.83;;
12356;SDS011;6243;51.244;6.774;2023-04-25T12:12:32;4.93;;;1.93;;
12356;SDS011;6243;51.244;6.774;2023-04-25T12:15:07;4.80;;;2.00;;
12356;SDS011;6243;51.244;6.774;2023-04-25T12:17:33;5.03;;;1.90;;
12356;SDS011;6243;51.244;6.774;2023-04-25T12:19:59;3.83;;;2.00;;
12356;SDS011;6243;51.244;6.774;2023-04-25T12:22:24;4.67;;;2.03;;
12356;SDS011;6243;51.244;6.774;2023-04-25T12:24:52;4.50;;;2.37;;
12356;SDS011;6243;51.244;6.774;2023-04-25T12:27:17;4.90;;;1.93;;
12356;SDS011;6243;51.244;6.774;2023-04-25T12:29:49;4.03;;;1.97;;
12356;SDS011;6243;51.244;6.774;2023-04-25T12:32:16;3.40;;;1.90;;
12356;SDS011;6243;51.244;6.774;2023-04-25T12:34:41;3.90;;;1.80;;
12356;SDS011;6243;51.244;6.774;2023-04-25T12:37:07;3.30;;;2.00;;
12356;SDS011;6243;51.244;6.774;2023-04-25T12:39:32;3.60;;;2.10;;
12356;SDS011;6243;51.244;6.774;2023-04-25T12:41:59;4.63;;;2.30;;
12356;SDS011;6243;51.244;6.774;2023-04-25T12:44:25;6.50;;;2.50;;
12356;SDS011;6243;51.244;6.774;2023-04-25T12:46:50;6.50;;;2.30;;
12356;SDS011;6243;51.244;6.774;2023-04-25T12:49:16;4.37;;;2.33;;
12356;SDS011;6243;51.244;6.774;2023-04-25T12:51:41;4.33;;;2.17;;
12356;SDS011;6243;51.244;6.774;2023-04-25T12:54:07;6.60;;;2.43;;
12356;SDS011;6243;51.244;6.774;2023-04-25T12:56:32;3.00;;;1.93;;
12356;SDS011;6243;51.244;6.774;2023-04-25T12:59:00;7.03;;;2.50;;
12356;SDS011;6243;51.244;6.774;2023-04-25T13:01:25;4.57;;;2.10;;
12356;SDS011;6243;51.244;6.774;2023-04-25T13:03:51;4.40;;;1.90;;
12356;SDS011;6243;51.244;6.774;2023-04-25T13:06:17;3.47;;;1.80;;
12356;SDS011;6243;51.244;6.774;2023-04-25T13:08:44;3.83;;;1.73;;
12356;SDS011;6243;51.244;6.774;2023-04-25T13:11:10;4.57;;;1.80;;
12356;SDS011;6243;51.244;6.774;2023-04-25T13:13:35;3.33;;;1.57;;
12356;SDS011;6243;51.244;6.774;2023-04-25T13:16:02;4.33;;;2.07;;
12356;SDS011;6243;51.244;6.774;2023-04-25T13:18:29;3.80;;;1.53;;
12356;SDS011;6243;51.244;6.774;2023-04-25T13:20:54;4.67;;;2.27;;
12356;SDS011;6243;51.244;6.774;2023-04-25T13:23:20;4.33;;;1.70;;
12356;SDS011;6243;51.244;6.774;2023-04-25T13:25:46;4.53;;;1.87;;
12356;SDS011;6243;51.244;6.774;2023-04-25T13:28:11;4.13;;;1.90;;
12356;SDS011;6243;51.244;6.774;2023-04-25T13:30:37;3.03;;;1.73;;
12356;SDS011;6243;51.244;6.774;2023-04-25T13:33:04;2.67;;;1.60;;
12356;SDS011;6243;51.244;6.774;2023-04-25T13:35:30;4.37;;;1.80;;
12356;SDS011;6243;51.244;6.774;2023-04-25T13:37:55;2.73;;;1.40;;
12356;SDS011;6243;51.244;6.774;2023-04-25T13:40:21;2.40;;;1.57;;
12356;SDS011;6243;51.244;6.774;2023-04-25T13:42:47;3.00;;;1.40;;
12356;SDS011;6243;51.244;6.774;2023-04-25T13:45:13;3.67;;;1.47;;
12356;SDS011;6243;51.244;6.774;2023-04-25T13:47:38;3.20;;;1.17;;
12356;SDS011;6243;51.244;6.774;2023-04-25T13:50:06;2.83;;;1.40;;
12356;SDS011;6243;51.244;6.774;2023-04-25T13:52:32;2.50;;;1.23;;
12356;SDS011;6243;51.244;6.774;2023-04-25T13:54:57;3.33;;;1.50;;
12356;SDS011;6243;51.244;6.774;2023-04-25T13:57:23;1.83;;;1.37;;
12356;SDS011;6243;51.244;6.774;2023-04-25T13:59:49;1.67;;;1.33;;
12356;SDS011;6243;51.244;6.774;2023-04-25T14:02:15;2.67;;;1.77;;
12356;SDS011;6243;51.244;6.774;2023-04-25T14:04:40;4.80;;;1.63;;
12356;SDS011;6243;51.244;6.774;2023-04-25T14:07:07;4.40;;;1.83;;
12356;SDS011;6243;51.244;6.774;2023-04-25T14:09:33;3.43;;;1.87;;
12356;SDS011;6243;51.244;6.774;2023-04-25T14:11:59;4.70;;;2.03;;
12356;SDS011;6243;51.244;6.774;2023-04-25T14:14:24;2.60;;;1.80;;
12356;SDS011;6243;51.244;6.774;2023-04-25T14:16:50;2.10;;;1.43;;
12356;SDS011;6243;51.244;6.774;2023-04-25T14:19:16;4.43;;;2.00;;
12356;SDS011;6243;51.244;6.774;2023-04-25T14:21:42;4.23;;;1.60;;
12356;SDS011;6243;51.244;6.774;2023-04-25T14:24:09;5.20;;;2.03;;
12356;SDS011;6243;51.244;6.774;2023-04-25T14:26:35;3.17;;;1.50;;
12356;SDS011;6243;51.244;6.774;2023-04-25T14:29:00;3.53;;;1.70;;
12356;SDS011;6243;51.244;6.774;2023-04-25T14:31:26;4.07;;;1.50;;
12356;SDS011;6243;51.244;6.774;2023-04-25T14:33:51;4.10;;;2.00;;
12356;SDS011;6243;51.244;6.774;2023-04-25T14:36:17;3.30;;;1.80;;
12356;SDS011;6243;51.244;6.774;2023-04-25T14:38:43;4.10;;;2.03;;
12356;SDS011;6243;51.244;6.774;2023-04-25T14:41:10;4.27;;;2.00;;
12356;SDS011;6243;51.244;6.774;2023-04-25T14:43:35;5.23;;;1.80;;
12356;SDS011;6243;51.244;6.774;2023-04-25T14:46:01;6.33;;;2.00;;
12356;SDS011;6243;51.244;6.774;2023-04-25T14:48:26;2.53;;;1.40;;
12356;SDS011;6243;51.244;6.774;2023-04-25T14:50:52;4.63;;;2.07;;
12356;SDS011;6243;51.244;6.774;2023-04-25T14:53:18;3.73;;;1.80;;